Geneva, OH

4:58 AM EDT on August 31, 2014 (GMT -0400)
OHDOT 87-IR90 ATB/LAKE | Change Station
CLOSE
Current Station
Personal Weather Station
Location: Unionville, OH
Elevation: 808 ft
Nearby Weather Stations

Elev 808 ft 41.77 °N, 80.99 °W | Updated 43 minutes ago

Partly Cloudy
Partly Cloudy
74.0 °F
Feels Like 76 °F
N
2.0
Wind Variable Wind from South
Gusts 6.0 mph

Today
High -- | Low -- °F
--% Chance of Precip.
Yesterday
High -- | Low -- °F
Precip. -- in
6:48 AM 7:58 PM
Waxing Crescent, 29% visible
Pressure 29.98 in
Visibility 10.0 miles
Clouds Few 12000 ft
Heat Index 76 °F
Dew Point 64.0 °F
Humidity 71%
Rainfall -999.00 in
Snow Depth Not available.
UV 0 out of 12
Pollen 10.60 out of 12
Ozone Good
PM2.5 Moderate
Flu Activity Not available.
METAR KHZY 310853Z AUTO 20009KT 10SM FEW120 22/19 A3000 RMK AO2 RAB40E53 SLP150 P0001 60001 T02170194 58006

More Conditions Fewer Conditions

Pressure 29.98 in
Visibility 10.0 miles
Clouds Few 12000 ft
Heat Index 76 °F
Dew Point 64.0 °F
Humidity 71%
Rainfall -999.00 in
Snow Depth Not available.
UV 0 out of 12
Pollen 10.60 out of 12
Ozone Good
PM2.5 Moderate
Flu Activity Not available.
METAR KHZY 310853Z AUTO 20009KT 10SM FEW120 22/19 A3000 RMK AO2 RAB40E53 SLP150 P0001 60001 T02170194 58006

More Conditions Fewer Conditions

10-Day Weather Forecast

Almanac

Astronomy

Aug. 31, 2014 Rise Set
Actual Time 6:48 AM EDT 7:58 PM EDT
Civil Twilight 6:20 AM EDT 8:27 PM EDT
Nautical Twilight 5:45 AM EDT 9:01 PM EDT
Astronomical Twilight 5:09 AM EDT 9:37 PM EDT
Moon 12:39 PM EDT 11:07 PM EDT
Length of Visible Light 14h 07m
Length of Day
13h 10m
Tomorrow will be 2m 41s shorter.
Waxing Crescent, 29% of the Moon is Illuminated
Today
Waxing Crescent
Sep 2
First Quarter
Sep 8
Full
Sep 15
Last Quarter
Sep 24
New

Today's Extremes

State Highs State Lows

Community

WunderPhotos

Upload Photos

1,748,826 photos uploaded!

Nearby

Air Quality

  Air Quality AQ Index Pollutant
Yesterday Good
PM10
Yesterday Moderate
OZONE
Current Moderate
PM2.5
Current Good
OZONE
Sunday Good
PM2.5
Sunday Good
OZONE
Monday Moderate
PM2.5
Monday Good
OZONE
Tuesday Good
PM2.5
Tuesday Good
OZONE
Wednesday Moderate
PM2.5
Wednesday Good
OZONE

Snow Depth

Station Depth Elevation
No new snow has been reported.

Earthquake Activity

City Distance Mag. Time & Date
No recent earthquake activity has been reported nearby.
Minimum magnitude displayed is 2.5.

Coastal Water Temperatures

Place Temperature
Fairport, OH 73.0 °F
Cleveland, OH 72.0 °F

Nearby Weather Stations